sensor_id;sensor_type;location;lat;lon;timestamp;P1;durP1;ratioP1;P2;durP2;ratioP2
59042;SDS011;44826;51.596;5.624;2023-07-22T00:01:30;9.02;;;5.72;;
59042;SDS011;44826;51.596;5.624;2023-07-22T00:03:56;8.57;;;5.25;;
59042;SDS011;44826;51.596;5.624;2023-07-22T00:06:21;7.60;;;5.10;;
59042;SDS011;44826;51.596;5.624;2023-07-22T00:08:46;8.60;;;5.18;;
59042;SDS011;44826;51.596;5.624;2023-07-22T00:11:12;8.73;;;5.60;;
59042;SDS011;44826;51.596;5.624;2023-07-22T00:13:37;7.90;;;5.35;;
59042;SDS011;44826;51.596;5.624;2023-07-22T00:16:02;9.60;;;5.43;;
59042;SDS011;44826;51.596;5.624;2023-07-22T00:18:29;8.20;;;5.57;;
59042;SDS011;44826;51.596;5.624;2023-07-22T00:20:55;8.32;;;5.93;;
59042;SDS011;44826;51.596;5.624;2023-07-22T00:23:21;8.73;;;5.57;;
59042;SDS011;44826;51.596;5.624;2023-07-22T00:25:47;10.77;;;6.15;;
59042;SDS011;44826;51.596;5.624;2023-07-22T00:28:13;9.43;;;5.95;;
59042;SDS011;44826;51.596;5.624;2023-07-22T00:30:38;10.68;;;6.40;;
59042;SDS011;44826;51.596;5.624;2023-07-22T00:33:04;10.40;;;6.38;;
59042;SDS011;44826;51.596;5.624;2023-07-22T00:35:29;9.65;;;6.38;;
59042;SDS011;44826;51.596;5.624;2023-07-22T00:37:54;9.98;;;6.38;;
59042;SDS011;44826;51.596;5.624;2023-07-22T00:40:20;9.82;;;6.72;;
59042;SDS011;44826;51.596;5.624;2023-07-22T00:42:45;10.30;;;6.68;;
59042;SDS011;44826;51.596;5.624;2023-07-22T00:45:10;11.20;;;6.43;;
59042;SDS011;44826;51.596;5.624;2023-07-22T00:47:36;10.38;;;6.25;;
59042;SDS011;44826;51.596;5.624;2023-07-22T00:50:03;10.45;;;6.60;;
59042;SDS011;44826;51.596;5.624;2023-07-22T00:52:31;10.95;;;6.82;;
59042;SDS011;44826;51.596;5.624;2023-07-22T00:54:57;12.80;;;7.50;;
59042;SDS011;44826;51.596;5.624;2023-07-22T00:57:23;10.05;;;6.53;;
59042;SDS011;44826;51.596;5.624;2023-07-22T00:59:48;9.68;;;6.72;;
59042;SDS011;44826;51.596;5.624;2023-07-22T01:02:14;10.38;;;6.68;;
59042;SDS011;44826;51.596;5.624;2023-07-22T01:04:39;10.02;;;6.88;;
59042;SDS011;44826;51.596;5.624;2023-07-22T01:07:05;10.10;;;6.78;;
59042;SDS011;44826;51.596;5.624;2023-07-22T01:09:41;11.00;;;6.70;;
59042;SDS011;44826;51.596;5.624;2023-07-22T01:12:08;11.80;;;6.70;;
59042;SDS011;44826;51.596;5.624;2023-07-22T01:14:34;10.70;;;6.65;;
59042;SDS011;44826;51.596;5.624;2023-07-22T01:17:04;11.05;;;6.82;;
59042;SDS011;44826;51.596;5.624;2023-07-22T01:19:31;11.13;;;7.07;;
59042;SDS011;44826;51.596;5.624;2023-07-22T01:21:59;10.68;;;6.85;;
59042;SDS011;44826;51.596;5.624;2023-07-22T01:24:25;10.98;;;7.35;;
59042;SDS011;44826;51.596;5.624;2023-07-22T01:26:52;10.55;;;7.00;;
59042;SDS011;44826;51.596;5.624;2023-07-22T01:29:17;11.25;;;7.07;;
59042;SDS011;44826;51.596;5.624;2023-07-22T01:31:46;10.15;;;6.68;;
59042;SDS011;44826;51.596;5.624;2023-07-22T01:34:11;13.15;;;6.60;;
59042;SDS011;44826;51.596;5.624;2023-07-22T01:36:37;11.73;;;6.43;;
59042;SDS011;44826;51.596;5.624;2023-07-22T01:39:02;11.20;;;6.68;;
59042;SDS011;44826;51.596;5.624;2023-07-22T01:41:30;10.40;;;6.63;;
59042;SDS011;44826;51.596;5.624;2023-07-22T01:43:56;10.38;;;6.75;;
59042;SDS011;44826;51.596;5.624;2023-07-22T01:46:21;9.55;;;6.45;;
59042;SDS011;44826;51.596;5.624;2023-07-22T01:48:46;10.60;;;6.75;;
59042;SDS011;44826;51.596;5.624;2023-07-22T01:51:11;10.48;;;6.60;;
59042;SDS011;44826;51.596;5.624;2023-07-22T01:53:37;10.30;;;6.25;;
59042;SDS011;44826;51.596;5.624;2023-07-22T01:56:02;11.43;;;6.57;;
59042;SDS011;44826;51.596;5.624;2023-07-22T01:58:27;10.70;;;6.63;;
59042;SDS011;44826;51.596;5.624;2023-07-22T02:00:53;10.40;;;6.88;;
59042;SDS011;44826;51.596;5.624;2023-07-22T02:03:18;9.90;;;6.70;;
59042;SDS011;44826;51.596;5.624;2023-07-22T02:05:43;9.45;;;6.10;;
59042;SDS011;44826;51.596;5.624;2023-07-22T02:08:08;11.35;;;6.40;;
59042;SDS011;44826;51.596;5.624;2023-07-22T02:10:35;9.90;;;6.38;;
59042;SDS011;44826;51.596;5.624;2023-07-22T02:13:00;9.80;;;6.32;;
59042;SDS011;44826;51.596;5.624;2023-07-22T02:15:28;12.88;;;7.05;;
59042;SDS011;44826;51.596;5.624;2023-07-22T02:17:53;11.98;;;6.60;;
59042;SDS011;44826;51.596;5.624;2023-07-22T02:20:20;10.45;;;6.75;;
59042;SDS011;44826;51.596;5.624;2023-07-22T02:22:45;11.38;;;6.60;;
59042;SDS011;44826;51.596;5.624;2023-07-22T02:25:10;11.68;;;6.45;;
59042;SDS011;44826;51.596;5.624;2023-07-22T02:27:36;10.05;;;6.50;;
59042;SDS011;44826;51.596;5.624;2023-07-22T02:30:01;11.48;;;6.68;;
59042;SDS011;44826;51.596;5.624;2023-07-22T02:32:29;10.57;;;6.78;;
59042;SDS011;44826;51.596;5.624;2023-07-22T02:34:54;10.95;;;6.53;;
59042;SDS011;44826;51.596;5.624;2023-07-22T02:37:20;9.77;;;6.43;;
59042;SDS011;44826;51.596;5.624;2023-07-22T02:39:45;11.05;;;7.13;;
59042;SDS011;44826;51.596;5.624;2023-07-22T02:42:10;10.10;;;6.50;;
59042;SDS011;44826;51.596;5.624;2023-07-22T02:44:36;9.95;;;6.55;;
59042;SDS011;44826;51.596;5.624;2023-07-22T02:47:01;10.63;;;6.63;;
59042;SDS011;44826;51.596;5.624;2023-07-22T02:49:27;10.45;;;6.22;;
59042;SDS011;44826;51.596;5.624;2023-07-22T02:51:52;11.15;;;6.60;;
59042;SDS011;44826;51.596;5.624;2023-07-22T02:54:17;11.48;;;6.75;;
59042;SDS011;44826;51.596;5.624;2023-07-22T02:56:42;8.95;;;6.10;;
59042;SDS011;44826;51.596;5.624;2023-07-22T02:59:09;10.57;;;6.40;;
59042;SDS011;44826;51.596;5.624;2023-07-22T03:01:34;11.25;;;6.63;;
59042;SDS011;44826;51.596;5.624;2023-07-22T03:03:59;9.82;;;6.60;;
59042;SDS011;44826;51.596;5.624;2023-07-22T03:06:25;10.60;;;6.65;;
59042;SDS011;44826;51.596;5.624;2023-07-22T03:08:51;10.52;;;6.47;;
59042;SDS011;44826;51.596;5.624;2023-07-22T03:11:16;9.95;;;6.90;;
59042;SDS011;44826;51.596;5.624;2023-07-22T03:13:41;11.25;;;6.53;;
59042;SDS011;44826;51.596;5.624;2023-07-22T03:16:07;9.50;;;6.13;;
59042;SDS011;44826;51.596;5.624;2023-07-22T03:18:33;9.30;;;5.85;;
59042;SDS011;44826;51.596;5.624;2023-07-22T03:20:59;10.27;;;6.28;;
59042;SDS011;44826;51.596;5.624;2023-07-22T03:23:24;11.63;;;6.32;;
59042;SDS011;44826;51.596;5.624;2023-07-22T03:25:49;8.88;;;5.80;;
59042;SDS011;44826;51.596;5.624;2023-07-22T03:28:15;11.10;;;6.20;;
59042;SDS011;44826;51.596;5.624;2023-07-22T03:30:41;16.10;;;6.30;;
59042;SDS011;44826;51.596;5.624;2023-07-22T03:33:07;11.13;;;6.57;;
59042;SDS011;44826;51.596;5.624;2023-07-22T03:35:33;10.05;;;6.50;;
59042;SDS011;44826;51.596;5.624;2023-07-22T03:37:58;9.55;;;6.18;;
59042;SDS011;44826;51.596;5.624;2023-07-22T03:40:24;10.18;;;6.47;;
59042;SDS011;44826;51.596;5.624;2023-07-22T03:42:54;12.55;;;6.70;;
59042;SDS011;44826;51.596;5.624;2023-07-22T03:45:20;12.18;;;6.50;;
59042;SDS011;44826;51.596;5.624;2023-07-22T03:47:47;11.90;;;6.28;;
59042;SDS011;44826;51.596;5.624;2023-07-22T03:50:14;11.77;;;6.32;;
59042;SDS011;44826;51.596;5.624;2023-07-22T03:52:40;10.65;;;6.32;;
59042;SDS011;44826;51.596;5.624;2023-07-22T03:55:05;10.27;;;6.15;;
59042;SDS011;44826;51.596;5.624;2023-07-22T03:57:31;9.98;;;6.45;;
59042;SDS011;44826;51.596;5.624;2023-07-22T03:59:56;9.25;;;5.85;;
59042;SDS011;44826;51.596;5.624;2023-07-22T04:02:22;11.88;;;6.35;;
59042;SDS011;44826;51.596;5.624;2023-07-22T04:04:48;11.38;;;6.20;;
59042;SDS011;44826;51.596;5.624;2023-07-22T04:07:13;11.40;;;6.57;;
59042;SDS011;44826;51.596;5.624;2023-07-22T04:09:39;10.68;;;6.40;;
59042;SDS011;44826;51.596;5.624;2023-07-22T04:12:05;10.75;;;6.10;;
59042;SDS011;44826;51.596;5.624;2023-07-22T04:14:31;8.70;;;5.78;;
59042;SDS011;44826;51.596;5.624;2023-07-22T04:16:57;11.18;;;6.25;;
59042;SDS011;44826;51.596;5.624;2023-07-22T04:19:22;9.60;;;6.20;;
59042;SDS011;44826;51.596;5.624;2023-07-22T04:21:47;10.63;;;6.28;;
59042;SDS011;44826;51.596;5.624;2023-07-22T04:24:12;10.85;;;6.40;;
59042;SDS011;44826;51.596;5.624;2023-07-22T04:26:38;9.80;;;5.95;;
59042;SDS011;44826;51.596;5.624;2023-07-22T04:29:05;10.32;;;5.80;;
59042;SDS011;44826;51.596;5.624;2023-07-22T04:31:30;11.60;;;6.45;;
59042;SDS011;44826;51.596;5.624;2023-07-22T04:33:57;10.10;;;6.25;;
59042;SDS011;44826;51.596;5.624;2023-07-22T04:36:22;9.93;;;6.45;;
59042;SDS011;44826;51.596;5.624;2023-07-22T04:38:47;11.05;;;6.07;;
59042;SDS011;44826;51.596;5.624;2023-07-22T04:41:13;9.82;;;6.18;;
59042;SDS011;44826;51.596;5.624;2023-07-22T04:43:38;9.50;;;5.90;;
59042;SDS011;44826;51.596;5.624;2023-07-22T04:46:05;9.75;;;6.15;;
59042;SDS011;44826;51.596;5.624;2023-07-22T04:48:30;11.18;;;6.20;;
59042;SDS011;44826;51.596;5.624;2023-07-22T04:50:56;10.63;;;6.18;;
59042;SDS011;44826;51.596;5.624;2023-07-22T04:53:21;9.48;;;5.82;;
59042;SDS011;44826;51.596;5.624;2023-07-22T04:55:47;9.95;;;5.90;;
59042;SDS011;44826;51.596;5.624;2023-07-22T04:58:12;11.00;;;5.82;;
59042;SDS011;44826;51.596;5.624;2023-07-22T05:00:38;10.80;;;5.97;;
59042;SDS011;44826;51.596;5.624;2023-07-22T05:03:03;10.93;;;6.00;;
59042;SDS011;44826;51.596;5.624;2023-07-22T05:05:29;11.73;;;5.63;;
59042;SDS011;44826;51.596;5.624;2023-07-22T05:07:55;12.07;;;5.72;;
59042;SDS011;44826;51.596;5.624;2023-07-22T05:10:20;10.57;;;5.80;;
59042;SDS011;44826;51.596;5.624;2023-07-22T05:12:46;9.95;;;6.03;;
59042;SDS011;44826;51.596;5.624;2023-07-22T05:15:11;10.20;;;5.80;;
59042;SDS011;44826;51.596;5.624;2023-07-22T05:17:38;10.75;;;6.60;;
59042;SDS011;44826;51.596;5.624;2023-07-22T05:20:04;11.88;;;6.18;;
59042;SDS011;44826;51.596;5.624;2023-07-22T05:22:38;10.10;;;5.93;;
59042;SDS011;44826;51.596;5.624;2023-07-22T05:25:04;10.93;;;6.18;;
59042;SDS011;44826;51.596;5.624;2023-07-22T05:27:30;9.88;;;6.10;;
59042;SDS011;44826;51.596;5.624;2023-07-22T05:29:55;10.15;;;6.28;;
59042;SDS011;44826;51.596;5.624;2023-07-22T05:32:21;9.27;;;5.97;;
59042;SDS011;44826;51.596;5.624;2023-07-22T05:34:46;10.35;;;6.63;;
59042;SDS011;44826;51.596;5.624;2023-07-22T05:37:11;10.18;;;6.18;;
59042;SDS011;44826;51.596;5.624;2023-07-22T05:39:38;11.82;;;6.65;;
59042;SDS011;44826;51.596;5.624;2023-07-22T05:42:03;10.65;;;6.22;;
59042;SDS011;44826;51.596;5.624;2023-07-22T05:44:29;12.30;;;6.05;;
59042;SDS011;44826;51.596;5.624;2023-07-22T05:46:54;11.07;;;6.38;;
59042;SDS011;44826;51.596;5.624;2023-07-22T05:49:20;11.27;;;6.55;;
59042;SDS011;44826;51.596;5.624;2023-07-22T05:51:45;10.02;;;5.68;;
59042;SDS011;44826;51.596;5.624;2023-07-22T05:54:11;10.80;;;6.32;;
59042;SDS011;44826;51.596;5.624;2023-07-22T05:56:36;10.30;;;6.10;;
59042;SDS011;44826;51.596;5.624;2023-07-22T05:59:01;10.88;;;6.25;;
59042;SDS011;44826;51.596;5.624;2023-07-22T06:01:26;10.57;;;6.10;;
59042;SDS011;44826;51.596;5.624;2023-07-22T06:03:52;11.40;;;6.40;;
59042;SDS011;44826;51.596;5.624;2023-07-22T06:06:18;10.90;;;6.28;;
59042;SDS011;44826;51.596;5.624;2023-07-22T06:08:44;11.45;;;6.45;;
59042;SDS011;44826;51.596;5.624;2023-07-22T06:11:09;9.55;;;5.72;;
59042;SDS011;44826;51.596;5.624;2023-07-22T06:13:34;10.18;;;5.75;;
59042;SDS011;44826;51.596;5.624;2023-07-22T06:16:00;12.85;;;6.05;;
59042;SDS011;44826;51.596;5.624;2023-07-22T06:18:25;9.82;;;6.22;;
59042;SDS011;44826;51.596;5.624;2023-07-22T06:20:50;12.13;;;6.53;;
59042;SDS011;44826;51.596;5.624;2023-07-22T06:23:16;10.18;;;6.03;;
59042;SDS011;44826;51.596;5.624;2023-07-22T06:25:41;12.48;;;6.97;;
59042;SDS011;44826;51.596;5.624;2023-07-22T06:28:08;12.43;;;6.82;;
59042;SDS011;44826;51.596;5.624;2023-07-22T06:30:33;11.18;;;6.50;;
59042;SDS011;44826;51.596;5.624;2023-07-22T06:32:58;11.20;;;7.00;;
59042;SDS011;44826;51.596;5.624;2023-07-22T06:35:23;12.00;;;6.70;;
59042;SDS011;44826;51.596;5.624;2023-07-22T06:37:49;11.52;;;6.88;;
59042;SDS011;44826;51.596;5.624;2023-07-22T06:40:14;12.57;;;7.20;;
59042;SDS011;44826;51.596;5.624;2023-07-22T06:42:39;11.18;;;6.85;;
59042;SDS011;44826;51.596;5.624;2023-07-22T06:45:05;15.65;;;7.50;;
59042;SDS011;44826;51.596;5.624;2023-07-22T06:47:30;13.25;;;7.05;;
59042;SDS011;44826;51.596;5.624;2023-07-22T06:49:56;12.77;;;6.85;;
59042;SDS011;44826;51.596;5.624;2023-07-22T06:52:22;12.43;;;7.18;;
59042;SDS011;44826;51.596;5.624;2023-07-22T06:54:47;11.90;;;6.78;;
59042;SDS011;44826;51.596;5.624;2023-07-22T06:57:13;12.95;;;7.15;;
59042;SDS011;44826;51.596;5.624;2023-07-22T06:59:38;11.77;;;6.57;;
59042;SDS011;44826;51.596;5.624;2023-07-22T07:02:03;11.95;;;6.03;;
59042;SDS011;44826;51.596;5.624;2023-07-22T07:04:29;11.02;;;6.93;;
59042;SDS011;44826;51.596;5.624;2023-07-22T07:06:55;14.38;;;7.57;;
59042;SDS011;44826;51.596;5.624;2023-07-22T07:09:20;13.50;;;7.05;;
59042;SDS011;44826;51.596;5.624;2023-07-22T07:11:46;11.38;;;7.15;;
59042;SDS011;44826;51.596;5.624;2023-07-22T07:14:11;12.75;;;6.78;;
59042;SDS011;44826;51.596;5.624;2023-07-22T07:16:37;12.60;;;6.88;;
59042;SDS011;44826;51.596;5.624;2023-07-22T07:19:03;12.95;;;7.53;;
59042;SDS011;44826;51.596;5.624;2023-07-22T07:21:28;12.43;;;6.70;;
59042;SDS011;44826;51.596;5.624;2023-07-22T07:23:53;13.38;;;6.75;;
59042;SDS011;44826;51.596;5.624;2023-07-22T07:26:19;14.98;;;7.13;;
59042;SDS011;44826;51.596;5.624;2023-07-22T07:28:45;11.68;;;6.72;;
59042;SDS011;44826;51.596;5.624;2023-07-22T07:31:11;13.35;;;6.75;;
59042;SDS011;44826;51.596;5.624;2023-07-22T07:33:37;10.40;;;6.70;;
59042;SDS011;44826;51.596;5.624;2023-07-22T07:36:02;11.52;;;6.60;;
59042;SDS011;44826;51.596;5.624;2023-07-22T07:38:28;13.38;;;7.13;;
59042;SDS011;44826;51.596;5.624;2023-07-22T07:40:57;11.70;;;6.55;;
59042;SDS011;44826;51.596;5.624;2023-07-22T07:43:33;11.82;;;6.70;;
59042;SDS011;44826;51.596;5.624;2023-07-22T07:48:58;11.68;;;5.88;;
59042;SDS011;44826;51.596;5.624;2023-07-22T07:51:26;11.50;;;6.45;;
59042;SDS011;44826;51.596;5.624;2023-07-22T07:53:52;12.02;;;6.13;;
59042;SDS011;44826;51.596;5.624;2023-07-22T07:56:18;14.90;;;6.88;;
59042;SDS011;44826;51.596;5.624;2023-07-22T07:58:44;10.38;;;6.65;;
59042;SDS011;44826;51.596;5.624;2023-07-22T08:01:11;16.17;;;7.13;;
59042;SDS011;44826;51.596;5.624;2023-07-22T08:03:37;12.55;;;6.82;;
59042;SDS011;44826;51.596;5.624;2023-07-22T08:06:03;10.13;;;6.13;;
59042;SDS011;44826;51.596;5.624;2023-07-22T08:08:28;11.40;;;6.22;;
59042;SDS011;44826;51.596;5.624;2023-07-22T08:11:01;11.60;;;6.43;;
59042;SDS011;44826;51.596;5.624;2023-07-22T08:13:27;11.25;;;6.22;;
59042;SDS011;44826;51.596;5.624;2023-07-22T08:15:55;9.82;;;5.93;;
59042;SDS011;44826;51.596;5.624;2023-07-22T08:18:20;11.18;;;5.90;;
59042;SDS011;44826;51.596;5.624;2023-07-22T08:20:45;10.80;;;5.78;;
59042;SDS011;44826;51.596;5.624;2023-07-22T08:23:12;11.48;;;6.10;;
59042;SDS011;44826;51.596;5.624;2023-07-22T08:25:38;13.63;;;6.50;;
59042;SDS011;44826;51.596;5.624;2023-07-22T08:28:03;10.38;;;6.00;;
59042;SDS011;44826;51.596;5.624;2023-07-22T08:30:28;9.68;;;5.45;;
59042;SDS011;44826;51.596;5.624;2023-07-22T08:32:56;11.30;;;5.40;;
59042;SDS011;44826;51.596;5.624;2023-07-22T08:35:21;10.35;;;5.50;;
59042;SDS011;44826;51.596;5.624;2023-07-22T08:37:47;10.02;;;5.35;;
59042;SDS011;44826;51.596;5.624;2023-07-22T08:40:12;7.88;;;4.57;;
59042;SDS011;44826;51.596;5.624;2023-07-22T08:42:38;8.50;;;4.90;;
59042;SDS011;44826;51.596;5.624;2023-07-22T08:45:04;9.55;;;4.55;;
59042;SDS011;44826;51.596;5.624;2023-07-22T08:47:34;7.10;;;4.38;;
59042;SDS011;44826;51.596;5.624;2023-07-22T08:50:01;9.38;;;4.72;;
59042;SDS011;44826;51.596;5.624;2023-07-22T08:52:27;7.78;;;4.68;;
59042;SDS011;44826;51.596;5.624;2023-07-22T08:54:53;10.05;;;4.50;;
59042;SDS011;44826;51.596;5.624;2023-07-22T08:57:19;7.93;;;4.28;;
59042;SDS011;44826;51.596;5.624;2023-07-22T08:59:45;9.05;;;4.80;;
59042;SDS011;44826;51.596;5.624;2023-07-22T09:02:12;9.02;;;4.38;;
59042;SDS011;44826;51.596;5.624;2023-07-22T09:04:38;9.57;;;4.22;;
59042;SDS011;44826;51.596;5.624;2023-07-22T09:07:07;8.93;;;4.07;;
59042;SDS011;44826;51.596;5.624;2023-07-22T09:09:34;8.82;;;4.15;;
59042;SDS011;44826;51.596;5.624;2023-07-22T09:11:59;6.30;;;3.45;;
59042;SDS011;44826;51.596;5.624;2023-07-22T09:14:33;6.53;;;4.05;;
59042;SDS011;44826;51.596;5.624;2023-07-22T09:17:04;5.53;;;3.20;;
59042;SDS011;44826;51.596;5.624;2023-07-22T09:19:30;7.07;;;3.65;;
59042;SDS011;44826;51.596;5.624;2023-07-22T09:21:55;6.57;;;3.10;;
59042;SDS011;44826;51.596;5.624;2023-07-22T09:24:21;7.30;;;3.50;;
59042;SDS011;44826;51.596;5.624;2023-07-22T09:26:48;5.88;;;3.38;;
59042;SDS011;44826;51.596;5.624;2023-07-22T09:29:14;4.97;;;3.30;;
59042;SDS011;44826;51.596;5.624;2023-07-22T09:31:50;6.38;;;3.03;;
59042;SDS011;44826;51.596;5.624;2023-07-22T09:34:16;4.65;;;2.60;;
59042;SDS011;44826;51.596;5.624;2023-07-22T09:36:55;4.85;;;2.78;;
59042;SDS011;44826;51.596;5.624;2023-07-22T09:39:22;5.35;;;2.88;;
59042;SDS011;44826;51.596;5.624;2023-07-22T09:41:48;4.38;;;2.60;;
59042;SDS011;44826;51.596;5.624;2023-07-22T09:44:13;5.20;;;3.25;;
59042;SDS011;44826;51.596;5.624;2023-07-22T09:46:39;5.32;;;3.00;;
59042;SDS011;44826;51.596;5.624;2023-07-22T09:49:06;4.97;;;3.05;;
59042;SDS011;44826;51.596;5.624;2023-07-22T09:51:34;7.47;;;3.17;;
59042;SDS011;44826;51.596;5.624;2023-07-22T09:54:03;8.18;;;3.33;;
59042;SDS011;44826;51.596;5.624;2023-07-22T09:56:30;6.03;;;3.00;;
59042;SDS011;44826;51.596;5.624;2023-07-22T09:58:56;5.00;;;3.00;;
59042;SDS011;44826;51.596;5.624;2023-07-22T10:01:24;5.88;;;3.17;;
59042;SDS011;44826;51.596;5.624;2023-07-22T10:03:53;6.53;;;3.20;;
59042;SDS011;44826;51.596;5.624;2023-07-22T10:06:20;6.82;;;2.97;;
59042;SDS011;44826;51.596;5.624;2023-07-22T10:09:01;5.95;;;2.97;;
59042;SDS011;44826;51.596;5.624;2023-07-22T10:11:35;7.28;;;2.90;;
59042;SDS011;44826;51.596;5.624;2023-07-22T10:14:04;4.65;;;2.88;;
59042;SDS011;44826;51.596;5.624;2023-07-22T10:16:30;3.80;;;2.60;;
59042;SDS011;44826;51.596;5.624;2023-07-22T10:18:55;6.40;;;2.95;;
59042;SDS011;44826;51.596;5.624;2023-07-22T10:21:22;5.45;;;2.63;;
59042;SDS011;44826;51.596;5.624;2023-07-22T10:23:48;5.70;;;3.13;;
59042;SDS011;44826;51.596;5.624;2023-07-22T10:26:15;4.15;;;2.65;;
59042;SDS011;44826;51.596;5.624;2023-07-22T10:28:43;7.13;;;2.83;;
59042;SDS011;44826;51.596;5.624;2023-07-22T10:31:09;7.80;;;2.90;;
59042;SDS011;44826;51.596;5.624;2023-07-22T10:33:35;8.57;;;3.00;;
59042;SDS011;44826;51.596;5.624;2023-07-22T10:36:04;5.82;;;2.97;;
59042;SDS011;44826;51.596;5.624;2023-07-22T10:38:30;5.18;;;2.83;;
59042;SDS011;44826;51.596;5.624;2023-07-22T10:40:56;5.22;;;2.60;;
59042;SDS011;44826;51.596;5.624;2023-07-22T10:43:31;5.75;;;2.67;;
59042;SDS011;44826;51.596;5.624;2023-07-22T10:46:09;6.07;;;2.63;;
59042;SDS011;44826;51.596;5.624;2023-07-22T10:48:37;4.88;;;2.75;;
59042;SDS011;44826;51.596;5.624;2023-07-22T10:53:32;6.03;;;2.65;;
59042;SDS011;44826;51.596;5.624;2023-07-22T11:04:11;4.40;;;2.40;;
59042;SDS011;44826;51.596;5.624;2023-07-22T11:12:06;4.88;;;1.95;;
59042;SDS011;44826;51.596;5.624;2023-07-22T11:14:45;4.03;;;1.90;;
59042;SDS011;44826;51.596;5.624;2023-07-22T11:17:14;2.58;;;1.60;;
59042;SDS011;44826;51.596;5.624;2023-07-22T11:19:39;3.25;;;1.65;;
59042;SDS011;44826;51.596;5.624;2023-07-22T11:22:05;3.75;;;1.40;;
59042;SDS011;44826;51.596;5.624;2023-07-22T11:24:32;3.25;;;1.30;;
59042;SDS011;44826;51.596;5.624;2023-07-22T11:27:02;3.97;;;1.40;;
59042;SDS011;44826;51.596;5.624;2023-07-22T11:29:31;4.63;;;1.52;;
59042;SDS011;44826;51.596;5.624;2023-07-22T11:31:56;3.03;;;1.30;;
59042;SDS011;44826;51.596;5.624;2023-07-22T11:34:23;2.85;;;1.50;;
59042;SDS011;44826;51.596;5.624;2023-07-22T11:36:49;2.95;;;1.38;;
59042;SDS011;44826;51.596;5.624;2023-07-22T11:42:06;2.78;;;1.40;;
59042;SDS011;44826;51.596;5.624;2023-07-22T11:44:39;2.65;;;1.33;;
59042;SDS011;44826;51.596;5.624;2023-07-22T11:47:07;6.40;;;1.45;;
59042;SDS011;44826;51.596;5.624;2023-07-22T11:49:37;4.72;;;1.25;;
59042;SDS011;44826;51.596;5.624;2023-07-22T11:52:17;5.13;;;1.50;;
59042;SDS011;44826;51.596;5.624;2023-07-22T11:54:43;1.83;;;1.30;;
59042;SDS011;44826;51.596;5.624;2023-07-22T11:57:12;3.40;;;1.40;;
59042;SDS011;44826;51.596;5.624;2023-07-22T11:59:39;3.33;;;1.40;;
59042;SDS011;44826;51.596;5.624;2023-07-22T12:02:12;2.47;;;1.15;;
59042;SDS011;44826;51.596;5.624;2023-07-22T12:04:42;3.60;;;1.60;;
59042;SDS011;44826;51.596;5.624;2023-07-22T12:07:20;3.30;;;1.50;;
59042;SDS011;44826;51.596;5.624;2023-07-22T12:09:50;2.92;;;1.60;;
59042;SDS011;44826;51.596;5.624;2023-07-22T12:15:58;3.72;;;1.60;;
59042;SDS011;44826;51.596;5.624;2023-07-22T12:18:46;4.05;;;1.20;;
59042;SDS011;44826;51.596;5.624;2023-07-22T12:21:22;2.50;;;1.27;;
59042;SDS011;44826;51.596;5.624;2023-07-22T12:23:57;3.20;;;1.60;;
59042;SDS011;44826;51.596;5.624;2023-07-22T12:26:30;2.35;;;1.48;;
59042;SDS011;44826;51.596;5.624;2023-07-22T12:29:00;2.35;;;1.38;;
59042;SDS011;44826;51.596;5.624;2023-07-22T12:31:25;2.78;;;1.45;;
59042;SDS011;44826;51.596;5.624;2023-07-22T12:33:55;2.75;;;1.45;;
59042;SDS011;44826;51.596;5.624;2023-07-22T12:36:20;2.42;;;1.50;;
59042;SDS011;44826;51.596;5.624;2023-07-22T12:38:46;2.65;;;1.40;;
59042;SDS011;44826;51.596;5.624;2023-07-22T12:41:11;2.97;;;1.40;;
59042;SDS011;44826;51.596;5.624;2023-07-22T12:43:37;2.38;;;1.35;;
59042;SDS011;44826;51.596;5.624;2023-07-22T12:46:02;5.90;;;1.70;;
59042;SDS011;44826;51.596;5.624;2023-07-22T12:48:27;3.83;;;1.60;;
59042;SDS011;44826;51.596;5.624;2023-07-22T12:50:52;3.88;;;1.58;;
59042;SDS011;44826;51.596;5.624;2023-07-22T12:53:18;3.15;;;1.42;;
59042;SDS011;44826;51.596;5.624;2023-07-22T12:55:43;3.20;;;1.30;;
59042;SDS011;44826;51.596;5.624;2023-07-22T12:58:08;2.92;;;1.48;;
59042;SDS011;44826;51.596;5.624;2023-07-22T13:00:34;3.38;;;1.73;;
59042;SDS011;44826;51.596;5.624;2023-07-22T13:02:59;7.10;;;1.67;;
59042;SDS011;44826;51.596;5.624;2023-07-22T13:05:24;3.78;;;1.60;;
59042;SDS011;44826;51.596;5.624;2023-07-22T13:07:50;4.82;;;1.70;;
59042;SDS011;44826;51.596;5.624;2023-07-22T13:10:15;4.75;;;1.67;;
59042;SDS011;44826;51.596;5.624;2023-07-22T13:12:45;2.97;;;1.80;;
59042;SDS011;44826;51.596;5.624;2023-07-22T13:15:10;3.20;;;1.63;;
59042;SDS011;44826;51.596;5.624;2023-07-22T13:17:36;3.15;;;1.60;;
59042;SDS011;44826;51.596;5.624;2023-07-22T13:20:01;3.03;;;1.67;;
59042;SDS011;44826;51.596;5.624;2023-07-22T13:22:30;3.50;;;1.55;;
59042;SDS011;44826;51.596;5.624;2023-07-22T13:24:55;3.10;;;1.60;;
59042;SDS011;44826;51.596;5.624;2023-07-22T13:27:20;2.63;;;1.27;;
59042;SDS011;44826;51.596;5.624;2023-07-22T13:29:46;2.25;;;1.40;;
59042;SDS011;44826;51.596;5.624;2023-07-22T13:32:11;3.10;;;1.50;;
59042;SDS011;44826;51.596;5.624;2023-07-22T13:34:36;3.03;;;1.48;;
59042;SDS011;44826;51.596;5.624;2023-07-22T13:37:01;2.50;;;1.30;;
59042;SDS011;44826;51.596;5.624;2023-07-22T13:39:27;1.83;;;1.33;;
59042;SDS011;44826;51.596;5.624;2023-07-22T13:41:53;3.25;;;1.42;;
59042;SDS011;44826;51.596;5.624;2023-07-22T13:44:18;3.33;;;1.27;;
59042;SDS011;44826;51.596;5.624;2023-07-22T13:46:43;3.05;;;1.20;;
59042;SDS011;44826;51.596;5.624;2023-07-22T13:49:08;2.35;;;1.30;;
59042;SDS011;44826;51.596;5.624;2023-07-22T13:51:34;1.75;;;1.10;;
59042;SDS011;44826;51.596;5.624;2023-07-22T13:53:59;2.08;;;1.40;;
59042;SDS011;44826;51.596;5.624;2023-07-22T13:56:24;2.15;;;1.25;;
59042;SDS011;44826;51.596;5.624;2023-07-22T13:58:50;6.88;;;1.10;;
59042;SDS011;44826;51.596;5.624;2023-07-22T14:01:15;4.55;;;1.30;;
59042;SDS011;44826;51.596;5.624;2023-07-22T14:03:40;2.47;;;1.30;;
59042;SDS011;44826;51.596;5.624;2023-07-22T14:06:06;3.92;;;1.05;;
59042;SDS011;44826;51.596;5.624;2023-07-22T14:08:31;1.50;;;1.05;;
59042;SDS011;44826;51.596;5.624;2023-07-22T14:11:15;3.15;;;1.13;;
59042;SDS011;44826;51.596;5.624;2023-07-22T14:13:41;1.52;;;1.00;;
59042;SDS011;44826;51.596;5.624;2023-07-22T14:16:06;1.98;;;0.95;;
59042;SDS011;44826;51.596;5.624;2023-07-22T14:18:31;2.40;;;1.10;;
59042;SDS011;44826;51.596;5.624;2023-07-22T14:20:58;1.65;;;1.00;;
59042;SDS011;44826;51.596;5.624;2023-07-22T14:23:25;3.13;;;1.00;;
59042;SDS011;44826;51.596;5.624;2023-07-22T14:25:51;3.05;;;1.15;;
59042;SDS011;44826;51.596;5.624;2023-07-22T14:28:24;5.85;;;1.13;;
59042;SDS011;44826;51.596;5.624;2023-07-22T14:30:51;3.85;;;1.25;;
59042;SDS011;44826;51.596;5.624;2023-07-22T14:33:17;2.85;;;1.20;;
59042;SDS011;44826;51.596;5.624;2023-07-22T14:35:51;2.60;;;1.30;;
59042;SDS011;44826;51.596;5.624;2023-07-22T14:38:16;2.08;;;1.10;;
59042;SDS011;44826;51.596;5.624;2023-07-22T14:40:41;2.13;;;1.10;;
59042;SDS011;44826;51.596;5.624;2023-07-22T14:43:06;1.80;;;1.10;;
59042;SDS011;44826;51.596;5.624;2023-07-22T14:45:32;2.95;;;1.30;;
59042;SDS011;44826;51.596;5.624;2023-07-22T14:47:57;5.60;;;1.27;;
59042;SDS011;44826;51.596;5.624;2023-07-22T14:50:24;2.08;;;1.20;;
59042;SDS011;44826;51.596;5.624;2023-07-22T14:52:49;3.50;;;1.40;;
59042;SDS011;44826;51.596;5.624;2023-07-22T14:55:15;3.35;;;1.20;;
59042;SDS011;44826;51.596;5.624;2023-07-22T14:57:43;3.22;;;1.20;;
59042;SDS011;44826;51.596;5.624;2023-07-22T15:00:09;3.90;;;1.40;;
59042;SDS011;44826;51.596;5.624;2023-07-22T15:02:37;4.40;;;1.23;;